Time;durP1;ratioP1;P1;durP2;ratioP2;P2;SDS_P1;SDS_P2;PMS_P1;PMS_P2;Temp;Humidity;BMP_temperature;BMP_pressure;BME280_temperature;BME280_humidity;BME280_pressure;Samples;Min_cycle;Max_cycle;Signal;HPM_P1;HPM_P2
2023/04/05 00:00:44;;;;;;;12.95;5.72;;;2.00;99.90;;;;;;4958722;28;20074;-82
2023/04/05 00:03:10;;;;;;;15.07;6.40;;;2.00;99.90;;;;;;4992285;28;20033;-82
2023/04/05 00:05:36;;;;;;;15.48;6.38;;;1.90;99.90;;;;;;4994131;28;20067;-82
2023/04/05 00:08:03;;;;;;;9.20;5.97;;;1.80;99.90;;;;;;4992591;28;20022;-82
2023/04/05 00:10:30;;;;;;;13.05;5.97;;;1.70;99.90;;;;;;4983437;28;20049;-82
2023/04/05 00:12:57;;;;;;;10.82;6.07;;;1.70;99.90;;;;;;4963069;28;20030;-82
2023/04/05 00:15:23;;;;;;;8.35;5.60;;;1.70;99.90;;;;;;4986268;28;20038;-82
2023/04/05 00:17:48;;;;;;;12.63;6.32;;;1.60;99.90;;;;;;4974986;28;20041;-82
2023/04/05 00:20:14;;;;;;;10.95;6.35;;;1.60;99.90;;;;;;4983038;28;20032;-82
2023/04/05 00:22:42;;;;;;;12.95;6.70;;;1.60;99.90;;;;;;4976273;28;20832;-83
2023/04/05 00:25:08;;;;;;;10.93;6.57;;;1.50;99.90;;;;;;4993439;28;20030;-82
2023/04/05 00:27:34;;;;;;;14.30;6.75;;;1.50;99.90;;;;;;4985987;28;20042;-83
2023/04/05 00:30:00;;;;;;;12.98;6.80;;;1.50;99.90;;;;;;4992257;28;20626;-82
2023/04/05 00:32:25;;;;;;;14.43;7.07;;;1.60;99.90;;;;;;4992412;28;20023;-83
2023/04/05 00:34:51;;;;;;;17.77;7.25;;;1.50;99.90;;;;;;4992520;28;20035;-82
2023/04/05 00:37:17;;;;;;;12.02;6.90;;;1.50;99.90;;;;;;4988181;28;20118;-82
2023/04/05 00:39:42;;;;;;;11.00;6.93;;;1.50;99.90;;;;;;4992026;28;20465;-82
2023/04/05 00:42:08;;;;;;;14.60;7.75;;;1.40;99.90;;;;;;4989828;28;20033;-83
2023/04/05 00:44:34;;;;;;;14.45;7.93;;;1.50;99.90;;;;;;4992686;28;20029;-82
2023/04/05 00:47:01;;;;;;;14.10;8.13;;;1.40;99.90;;;;;;4968168;28;20495;-82
2023/04/05 00:49:29;;;;;;;15.23;7.10;;;1.40;99.90;;;;;;4977897;28;20019;-82
2023/04/05 00:51:56;;;;;;;12.30;7.32;;;1.40;99.90;;;;;;4991204;28;20097;-82
2023/04/05 00:54:22;;;;;;;14.32;8.13;;;1.40;99.90;;;;;;4979382;28;20034;-82
2023/04/05 00:56:51;;;;;;;13.05;7.78;;;1.30;99.90;;;;;;4981289;28;20130;-82
2023/04/05 00:59:17;;;;;;;13.15;7.15;;;1.30;99.90;;;;;;4974956;28;20023;-82
2023/04/05 01:01:53;;;;;;;14.15;7.88;;;1.20;99.90;;;;;;4972757;28;20061;-82
2023/04/05 01:04:27;;;;;;;12.88;7.90;;;1.20;99.90;;;;;;4975742;28;20455;-82
2023/04/05 01:07:16;;;;;;;12.43;7.47;;;1.20;99.90;;;;;;4991930;28;20113;-82
2023/04/05 01:09:52;;;;;;;15.38;8.43;;;1.20;99.90;;;;;;4990956;28;20113;-83
2023/04/05 01:12:19;;;;;;;16.50;8.18;;;1.20;99.90;;;;;;4974754;28;20663;-82
2023/04/05 01:14:48;;;;;;;13.63;8.02;;;1.20;99.90;;;;;;4986512;28;20018;-82
2023/04/05 01:17:15;;;;;;;15.45;8.43;;;1.10;99.90;;;;;;4991418;28;20038;-83
2023/04/05 01:19:46;;;;;;;15.80;8.63;;;1.20;99.90;;;;;;4992252;28;20031;-82
2023/04/05 01:22:50;;;;;;;17.05;8.52;;;1.10;99.90;;;;;;4991591;28;20038;-81
2023/04/05 01:25:37;;;;;;;13.95;8.32;;;1.10;99.90;;;;;;4974936;28;20039;-82
2023/04/05 01:28:29;;;;;;;15.43;8.93;;;1.10;99.90;;;;;;4992184;28;20034;-83
2023/04/05 01:31:13;;;;;;;16.30;8.43;;;1.10;99.90;;;;;;4992437;28;20057;-82
2023/04/05 01:33:52;;;;;;;13.60;8.55;;;1.10;99.90;;;;;;4978330;28;20042;-83
2023/04/05 01:36:30;;;;;;;12.35;7.47;;;1.10;99.90;;;;;;4972705;28;20043;-82
2023/04/05 01:38:58;;;;;;;11.70;7.75;;;1.10;99.90;;;;;;4988193;28;20030;-83
2023/04/05 01:41:25;;;;;;;14.38;7.95;;;1.10;99.90;;;;;;4973069;28;20031;-83
2023/04/05 01:43:50;;;;;;;15.57;7.93;;;1.10;99.90;;;;;;4985505;28;20034;-83
2023/04/05 01:46:16;;;;;;;15.10;7.90;;;1.00;99.90;;;;;;4974650;28;20030;-83
2023/04/05 01:48:41;;;;;;;13.45;7.85;;;1.00;99.90;;;;;;4979772;28;20109;-82
2023/04/05 01:51:07;;;;;;;15.98;7.90;;;1.00;99.90;;;;;;4965715;28;20122;-83
2023/04/05 01:53:33;;;;;;;13.60;7.20;;;0.90;99.90;;;;;;4993173;28;20036;-83
2023/04/05 01:56:02;;;;;;;16.40;8.05;;;0.90;99.90;;;;;;4984600;28;20098;-83
2023/04/05 01:58:27;;;;;;;14.05;7.80;;;0.80;99.90;;;;;;4969522;28;20038;-82
2023/04/05 02:00:56;;;;;;;14.20;8.00;;;0.80;99.90;;;;;;4993637;28;20050;-82
2023/04/05 02:03:23;;;;;;;17.05;8.18;;;0.80;99.90;;;;;;4990271;28;20039;-83
2023/04/05 02:05:48;;;;;;;20.13;8.20;;;0.80;99.90;;;;;;4977436;28;20106;-82
2023/04/05 02:08:14;;;;;;;16.92;7.93;;;0.80;99.90;;;;;;4976627;28;20062;-83
2023/04/05 02:10:40;;;;;;;14.52;7.63;;;0.80;99.90;;;;;;4990137;28;20030;-82
2023/04/05 02:13:06;;;;;;;15.00;7.47;;;0.80;99.90;;;;;;4993925;28;20018;-83
2023/04/05 02:15:32;;;;;;;13.70;7.22;;;0.80;99.90;;;;;;4992185;28;20030;-84
2023/04/05 02:18:00;;;;;;;16.08;7.32;;;0.80;99.90;;;;;;4991187;28;20038;-83
2023/04/05 02:20:27;;;;;;;13.65;7.30;;;0.70;99.90;;;;;;4993343;28;20350;-82
2023/04/05 02:22:53;;;;;;;16.08;8.30;;;0.70;99.90;;;;;;4992869;28;20049;-83
2023/04/05 02:25:19;;;;;;;16.08;8.60;;;0.70;99.90;;;;;;4993374;28;20113;-83
2023/04/05 02:27:45;;;;;;;17.55;7.82;;;0.60;99.90;;;;;;4984046;28;20095;-83
2023/04/05 02:30:12;;;;;;;11.40;7.18;;;0.60;99.90;;;;;;4992526;28;20478;-83
2023/04/05 02:32:41;;;;;;;12.02;7.28;;;0.60;99.90;;;;;;4981843;28;20023;-83
2023/04/05 02:35:08;;;;;;;11.40;6.55;;;0.60;99.90;;;;;;4970532;28;20065;-83
2023/04/05 02:37:34;;;;;;;16.02;7.80;;;0.60;99.90;;;;;;4974302;28;20524;-82
2023/04/05 02:40:00;;;;;;;13.30;6.95;;;0.60;99.90;;;;;;5007199;28;20030;-83
2023/04/05 02:42:25;;;;;;;12.68;8.05;;;0.60;99.90;;;;;;5004474;28;20704;-83
2023/04/05 02:44:51;;;;;;;17.95;7.97;;;0.50;99.90;;;;;;4982920;28;20026;-83
2023/04/05 02:47:20;;;;;;;14.48;7.63;;;0.60;99.90;;;;;;4964168;28;20654;-83
2023/04/05 02:49:47;;;;;;;16.17;8.40;;;0.60;99.90;;;;;;4974903;28;20023;-83
2023/04/05 02:52:13;;;;;;;15.15;7.50;;;0.60;99.90;;;;;;4993881;28;20038;-83
2023/04/05 02:54:39;;;;;;;18.20;8.77;;;0.60;99.90;;;;;;4998070;28;20030;-83
2023/04/05 02:57:05;;;;;;;12.57;7.97;;;0.60;99.90;;;;;;4996598;28;20052;-83
2023/04/05 02:59:30;;;;;;;15.98;8.70;;;0.60;99.90;;;;;;4978211;28;20019;-83
2023/04/05 03:01:56;;;;;;;20.50;8.85;;;0.60;99.90;;;;;;4997960;28;20046;-84
2023/04/05 03:04:25;;;;;;;15.13;8.65;;;0.60;99.90;;;;;;4997228;28;20037;-84
2023/04/05 03:06:53;;;;;;;14.73;8.18;;;0.60;99.90;;;;;;4995120;28;20030;-83
2023/04/05 03:09:19;;;;;;;12.23;8.35;;;0.70;99.90;;;;;;4996137;28;20394;-84
2023/04/05 03:11:45;;;;;;;17.80;8.60;;;0.80;99.90;;;;;;4994974;28;20139;-83
2023/04/05 03:14:11;;;;;;;18.27;8.98;;;0.80;99.90;;;;;;4993426;28;20018;-84
2023/04/05 03:16:38;;;;;;;17.80;8.95;;;0.90;99.90;;;;;;4985591;28;20053;-83
2023/04/05 03:19:05;;;;;;;15.45;9.40;;;1.00;99.90;;;;;;4993933;28;20029;-84
2023/04/05 03:21:32;;;;;;;17.60;9.27;;;1.10;99.90;;;;;;4994456;28;20022;-83
2023/04/05 03:23:59;;;;;;;17.48;9.18;;;1.20;99.90;;;;;;4993693;28;20518;-83
2023/04/05 03:26:25;;;;;;;14.05;8.88;;;1.30;99.90;;;;;;4994028;28;20026;-83
2023/04/05 03:28:50;;;;;;;15.38;8.90;;;1.40;99.90;;;;;;4974878;28;20043;-83
2023/04/05 03:31:16;;;;;;;16.10;8.82;;;1.50;99.90;;;;;;4986592;28;20037;-84
2023/04/05 03:33:42;;;;;;;17.30;8.85;;;1.60;99.90;;;;;;4975660;28;20030;-83
2023/04/05 03:36:08;;;;;;;15.32;9.27;;;1.60;99.90;;;;;;4992908;28;20022;-83
2023/04/05 03:38:34;;;;;;;18.13;9.07;;;1.70;99.90;;;;;;4995534;28;20044;-84
2023/04/05 03:41:01;;;;;;;15.48;8.90;;;1.80;99.90;;;;;;4978856;28;20038;-83
2023/04/05 03:43:26;;;;;;;15.75;9.60;;;1.80;99.90;;;;;;4995414;28;20026;-84
2023/04/05 03:45:52;;;;;;;17.00;8.55;;;1.90;99.90;;;;;;4977329;28;20045;-83
2023/04/05 03:48:19;;;;;;;16.42;8.10;;;1.90;99.90;;;;;;4995055;28;20081;-83
2023/04/05 03:50:45;;;;;;;20.63;9.60;;;2.00;99.90;;;;;;4995085;28;20040;-83
2023/04/05 03:53:11;;;;;;;15.93;9.05;;;2.10;99.90;;;;;;4995278;28;20038;-84
2023/04/05 03:55:37;;;;;;;13.98;8.65;;;2.00;99.90;;;;;;4993731;28;20494;-84
2023/04/05 03:58:02;;;;;;;13.80;7.95;;;1.90;99.90;;;;;;4993511;28;20042;-83
2023/04/05 04:00:28;;;;;;;14.05;7.40;;;2.00;99.90;;;;;;4993448;28;20117;-83
2023/04/05 04:02:54;;;;;;;14.60;7.88;;;2.00;99.90;;;;;;4992420;28;20030;-83
2023/04/05 04:05:20;;;;;;;11.68;7.53;;;2.00;99.90;;;;;;4990330;28;20026;-83
2023/04/05 04:07:46;;;;;;;14.13;8.60;;;2.00;99.90;;;;;;4987129;28;20019;-83
2023/04/05 04:10:16;;;;;;;14.43;8.57;;;2.00;99.90;;;;;;4975113;28;20026;-83
2023/04/05 04:12:42;;;;;;;16.05;8.15;;;2.00;99.90;;;;;;4975346;28;20022;-83
2023/04/05 04:15:08;;;;;;;13.75;7.43;;;2.00;99.90;;;;;;4976968;28;20033;-83
2023/04/05 04:17:35;;;;;;;16.05;8.75;;;1.90;99.90;;;;;;4994668;28;20061;-83
2023/04/05 04:20:07;;;;;;;15.02;7.60;;;1.90;99.90;;;;;;4995452;28;20104;-83
2023/04/05 04:22:32;;;;;;;14.68;7.47;;;2.00;99.90;;;;;;4995083;28;20491;-83
2023/04/05 04:25:03;;;;;;;15.98;8.77;;;1.80;99.90;;;;;;4988432;28;20030;-83
2023/04/05 04:27:30;;;;;;;13.43;8.47;;;1.80;99.90;;;;;;4995097;28;20502;-83
2023/04/05 04:30:02;;;;;;;19.05;8.77;;;1.80;99.90;;;;;;4995051;28;20263;-83
2023/04/05 04:35:17;;;;;;;19.73;8.73;;;1.90;99.90;;;;;;4994764;28;20129;-83
2023/04/05 04:37:45;;;;;;;15.68;7.93;;;1.80;99.90;;;;;;4994666;28;20053;-83
2023/04/05 04:40:15;;;;;;;15.43;8.35;;;1.90;99.90;;;;;;4993633;28;20027;-84
2023/04/05 04:42:45;;;;;;;16.00;8.25;;;2.00;99.90;;;;;;4986694;28;20497;-83
2023/04/05 04:45:12;;;;;;;14.95;7.80;;;2.00;99.90;;;;;;4972471;28;20523;-83
2023/04/05 04:47:37;;;;;;;16.30;7.88;;;2.00;99.90;;;;;;4974358;28;20027;-83
2023/04/05 04:50:03;;;;;;;15.20;8.30;;;2.10;99.90;;;;;;4990007;28;20032;-83
2023/04/05 04:52:29;;;;;;;14.75;7.80;;;2.10;99.90;;;;;;4992346;28;20023;-83
2023/04/05 04:54:55;;;;;;;16.15;8.40;;;2.00;99.90;;;;;;4984518;28;20061;-83
2023/04/05 04:57:21;;;;;;;14.07;8.25;;;2.10;99.90;;;;;;4974317;28;20642;-83
2023/04/05 04:59:46;;;;;;;15.90;8.05;;;2.10;99.90;;;;;;4992606;28;20055;-83
2023/04/05 05:02:12;;;;;;;14.07;8.32;;;2.10;99.90;;;;;;4993482;28;20063;-82
2023/04/05 05:04:40;;;;;;;15.52;8.63;;;2.10;99.90;;;;;;4976011;28;20026;-83
2023/04/05 05:07:05;;;;;;;13.75;7.82;;;2.10;99.90;;;;;;4991591;28;20081;-83
2023/04/05 05:09:31;;;;;;;16.15;8.57;;;2.20;99.90;;;;;;4975465;28;20035;-83
2023/04/05 05:11:58;;;;;;;14.55;8.52;;;2.20;99.90;;;;;;4976829;28;20026;-83
2023/04/05 05:14:24;;;;;;;15.90;8.02;;;2.10;99.90;;;;;;4985835;28;20039;-83
2023/04/05 05:16:49;;;;;;;15.95;8.18;;;2.10;99.90;;;;;;4981311;28;20073;-83
2023/04/05 05:19:15;;;;;;;13.73;8.75;;;2.20;99.90;;;;;;4974729;28;20066;-83
2023/04/05 05:21:40;;;;;;;12.65;7.90;;;2.20;99.90;;;;;;4955199;28;20483;-83
2023/04/05 05:24:08;;;;;;;15.80;8.90;;;2.20;99.90;;;;;;4989395;28;20057;-83
2023/04/05 05:26:35;;;;;;;14.00;8.70;;;2.30;99.90;;;;;;4983314;28;20094;-83
2023/04/05 05:29:01;;;;;;;14.32;9.45;;;2.20;99.90;;;;;;4979501;28;20023;-83
2023/04/05 05:31:28;;;;;;;15.15;8.90;;;2.30;99.90;;;;;;4994348;28;20660;-83
2023/04/05 05:33:53;;;;;;;18.73;9.55;;;2.40;99.90;;;;;;4993187;28;20074;-83
2023/04/05 05:36:19;;;;;;;17.15;9.38;;;2.40;99.90;;;;;;4989029;28;20042;-83
2023/04/05 05:38:45;;;;;;;17.98;9.98;;;2.40;99.90;;;;;;4993370;28;20057;-83
2023/04/05 05:41:10;;;;;;;19.88;9.60;;;2.50;99.90;;;;;;4994573;28;20026;-83
2023/04/05 05:43:36;;;;;;;17.15;10.15;;;2.60;99.90;;;;;;4978094;28;20113;-83
2023/04/05 05:46:02;;;;;;;21.38;11.38;;;2.60;99.90;;;;;;4996326;28;20401;-83
2023/04/05 05:48:27;;;;;;;16.10;10.05;;;2.50;99.90;;;;;;4992982;28;20134;-82
2023/04/05 05:50:53;;;;;;;19.08;10.40;;;2.50;99.90;;;;;;4977785;28;20044;-83
2023/04/05 05:53:19;;;;;;;22.40;10.13;;;2.70;99.90;;;;;;4997773;28;20026;-83
2023/04/05 05:55:45;;;;;;;18.30;10.50;;;2.70;99.90;;;;;;4997094;28;20107;-83
2023/04/05 05:58:11;;;;;;;18.83;10.80;;;2.90;99.90;;;;;;4980072;28;20509;-83
2023/04/05 06:00:37;;;;;;;18.50;9.40;;;3.10;99.90;;;;;;4983760;28;20038;-83
2023/04/05 06:03:04;;;;;;;20.95;10.35;;;3.30;99.90;;;;;;4979070;28;20030;-83
2023/04/05 06:05:30;;;;;;;18.38;9.98;;;3.60;99.90;;;;;;4993197;28;20034;-81
2023/04/05 06:07:55;;;;;;;18.25;9.90;;;3.90;99.90;;;;;;4987718;28;20081;-83
2023/04/05 06:10:23;;;;;;;17.50;9.70;;;4.10;99.90;;;;;;4992239;28;20031;-83
2023/04/05 06:12:49;;;;;;;68.25;26.60;;;4.40;99.90;;;;;;4993454;28;20506;-83
2023/04/05 06:15:15;;;;;;;28.10;12.55;;;4.80;99.90;;;;;;4981273;28;20760;-83
2023/04/05 06:17:41;;;;;;;35.50;14.70;;;5.30;99.90;;;;;;4986294;28;20062;-83
2023/04/05 06:20:09;;;;;;;24.08;10.75;;;5.70;99.90;;;;;;4973564;28;20037;-83
2023/04/05 06:22:35;;;;;;;23.52;12.10;;;5.80;99.90;;;;;;4991998;28;20124;-83
2023/04/05 06:25:01;;;;;;;23.17;11.43;;;6.00;99.90;;;;;;4989356;28;20807;-83
2023/04/05 06:27:26;;;;;;;33.35;16.90;;;6.40;99.90;;;;;;4991571;28;20018;-82
2023/04/05 06:29:54;;;;;;;24.35;12.93;;;6.70;99.90;;;;;;4987479;28;20086;-83
2023/04/05 06:32:19;;;;;;;20.15;10.88;;;7.00;99.90;;;;;;4984042;28;20030;-83
2023/04/05 06:34:47;;;;;;;21.27;12.10;;;7.60;99.90;;;;;;4984967;28;20030;-83
2023/04/05 06:37:13;;;;;;;19.92;11.98;;;8.00;99.90;;;;;;4989766;28;20076;-83
2023/04/05 06:39:39;;;;;;;18.80;11.10;;;8.70;99.20;;;;;;4984406;28;20521;-83
2023/04/05 06:42:04;;;;;;;429.90;212.82;;;9.00;96.90;;;;;;4985568;28;20034;-83
2023/04/05 06:44:30;;;;;;;22.52;13.20;;;8.90;96.00;;;;;;4991901;28;20054;-83
2023/04/05 06:46:56;;;;;;;18.80;10.88;;;8.70;96.70;;;;;;4994468;28;20045;-83
2023/04/05 06:49:21;;;;;;;18.80;11.25;;;8.50;98.10;;;;;;4977309;28;20078;-82
2023/04/05 06:51:47;;;;;;;21.77;11.75;;;8.30;99.10;;;;;;4994638;28;20040;-83
2023/04/05 06:54:13;;;;;;;20.42;11.82;;;8.20;99.90;;;;;;4994613;28;20026;-82
2023/04/05 06:56:38;;;;;;;21.05;11.88;;;8.00;99.90;;;;;;4992180;28;20034;-83
2023/04/05 06:59:04;;;;;;;18.17;10.52;;;8.00;99.90;;;;;;4988540;28;20098;-82
2023/04/05 07:01:30;;;;;;;15.18;9.75;;;8.00;99.90;;;;;;4983995;28;20050;-83
2023/04/05 07:03:55;;;;;;;20.42;10.00;;;8.00;99.90;;;;;;4989932;28;20501;-83
2023/04/05 07:06:22;;;;;;;15.65;10.18;;;8.00;99.90;;;;;;4993528;28;20058;-83
2023/04/05 07:08:48;;;;;;;18.30;10.98;;;8.00;99.90;;;;;;4992369;28;20612;-83
2023/04/05 07:11:14;;;;;;;15.48;9.65;;;8.20;99.90;;;;;;4993058;28;20038;-83
2023/04/05 07:13:40;;;;;;;16.65;9.98;;;8.40;99.90;;;;;;4980706;28;20030;-82
2023/04/05 07:16:06;;;;;;;21.48;10.40;;;8.70;99.90;;;;;;4986080;28;20042;-83
2023/04/05 07:18:31;;;;;;;18.77;11.23;;;9.20;99.90;;;;;;4988217;28;20042;-83
2023/04/05 07:21:02;;;;;;;18.27;10.50;;;9.60;98.20;;;;;;4987266;28;20031;-84
2023/04/05 07:23:29;;;;;;;20.00;12.00;;;10.30;95.70;;;;;;4987325;28;20030;-83
2023/04/05 07:26:01;;;;;;;18.60;11.25;;;10.50;95.00;;;;;;4979518;28;20114;-83
2023/04/05 07:28:27;;;;;;;17.80;11.02;;;10.40;94.00;;;;;;4986633;28;20394;-84
2023/04/05 07:30:53;;;;;;;21.08;12.65;;;10.10;96.60;;;;;;4972540;28;20041;-83
2023/04/05 07:33:18;;;;;;;20.13;12.32;;;10.20;96.50;;;;;;4988802;28;20033;-83
2023/04/05 07:35:44;;;;;;;21.90;12.68;;;10.50;96.00;;;;;;4979931;28;20041;-82
2023/04/05 07:38:10;;;;;;;19.45;12.77;;;10.50;96.50;;;;;;4991310;28;20070;-83
2023/04/05 07:40:35;;;;;;;20.00;12.07;;;10.70;95.90;;;;;;4990916;28;20097;-82
2023/04/05 07:43:01;;;;;;;20.55;12.45;;;10.90;94.80;;;;;;4991304;28;20178;-82
2023/04/05 07:45:26;;;;;;;20.67;11.98;;;11.00;93.90;;;;;;4969844;28;20014;-82
2023/04/05 07:47:52;;;;;;;18.33;12.35;;;11.30;95.50;;;;;;4985069;28;20123;-82
2023/04/05 07:50:18;;;;;;;21.63;11.85;;;11.60;93.50;;;;;;4980451;28;20034;-82
2023/04/05 07:52:43;;;;;;;25.90;13.02;;;11.90;92.40;;;;;;4961754;28;20064;-83
2023/04/05 07:55:09;;;;;;;19.60;12.45;;;12.40;92.10;;;;;;4979925;28;20085;-83
2023/04/05 07:57:35;;;;;;;22.10;12.20;;;12.80;91.40;;;;;;4980220;28;20044;-83
2023/04/05 08:00:03;;;;;;;20.13;12.82;;;13.30;83.80;;;;;;4980990;28;20529;-82
2023/04/05 08:02:28;;;;;;;19.85;11.95;;;13.80;72.80;;;;;;4980264;28;20074;-81
2023/04/05 08:04:54;;;;;;;20.70;13.43;;;14.30;69.00;;;;;;4980577;28;20042;-83
2023/04/05 08:07:22;;;;;;;19.35;14.05;;;14.90;63.80;;;;;;4986893;28;20027;-82
2023/04/05 08:09:47;;;;;;;22.33;14.32;;;15.30;61.20;;;;;;4983255;28;20030;-83
2023/04/05 08:12:13;;;;;;;22.42;14.45;;;15.50;58.40;;;;;;4980589;28;20047;-82
2023/04/05 08:14:38;;;;;;;21.73;14.00;;;15.70;59.40;;;;;;4965673;28;20065;-82
2023/04/05 08:17:04;;;;;;;21.75;14.90;;;15.80;60.00;;;;;;4982343;28;20422;-82
2023/04/05 08:19:29;;;;;;;22.17;14.52;;;15.90;62.60;;;;;;4979901;28;20043;-82
2023/04/05 08:21:55;;;;;;;22.80;13.43;;;16.00;63.50;;;;;;4974505;28;20026;-82
2023/04/05 08:24:21;;;;;;;19.00;12.55;;;15.70;60.20;;;;;;4978779;28;20700;-82
2023/04/05 08:26:47;;;;;;;20.90;13.15;;;15.80;64.20;;;;;;4978422;28;20117;-83
2023/04/05 08:29:13;;;;;;;20.73;12.93;;;16.00;66.50;;;;;;4981584;28;20137;-82
2023/04/05 08:31:38;;;;;;;20.50;12.82;;;16.30;59.10;;;;;;4981293;28;20062;-82
2023/04/05 08:34:07;;;;;;;23.95;13.05;;;16.60;57.20;;;;;;4978009;28;20145;-83
2023/04/05 08:36:32;;;;;;;21.75;13.25;;;16.60;55.10;;;;;;4982442;28;20117;-83
2023/04/05 08:38:58;;;;;;;20.70;13.20;;;16.80;52.40;;;;;;4969774;28;20138;-82
2023/04/05 08:41:31;;;;;;;21.00;13.25;;;16.90;53.30;;;;;;4638315;28;10000023;-82
2023/04/05 08:44:01;;;;;;;22.95;12.65;;;17.30;52.70;;;;;;4987718;28;20117;-82
2023/04/05 08:46:34;;;;;;;19.15;12.90;;;17.20;50.30;;;;;;4982726;28;20272;-80
2023/04/05 08:49:06;;;;;;;24.67;12.48;;;17.30;50.30;;;;;;4986983;28;20031;-82
2023/04/05 08:51:32;;;;;;;21.25;12.25;;;17.20;52.40;;;;;;4980544;28;20053;-83
2023/04/05 08:53:59;;;;;;;22.02;11.80;;;17.50;54.80;;;;;;4981006;28;20034;-82
2023/04/05 08:56:27;;;;;;;20.42;11.98;;;17.90;54.70;;;;;;4982506;28;20089;-81
2023/04/05 08:59:01;;;;;;;19.52;12.57;;;18.20;51.80;;;;;;4983215;28;20038;-81
2023/04/05 09:01:29;;;;;;;24.70;11.23;;;18.40;48.90;;;;;;4986126;28;20549;-81
2023/04/05 09:03:58;;;;;;;17.95;11.45;;;18.20;47.60;;;;;;4985687;28;20030;-81
2023/04/05 09:06:26;;;;;;;16.98;11.80;;;18.60;48.00;;;;;;4970764;28;20026;-81
2023/04/05 09:08:53;;;;;;;17.08;11.73;;;18.60;46.50;;;;;;4970886;28;20117;-81
2023/04/05 09:11:19;;;;;;;17.85;11.32;;;18.40;49.10;;;;;;4983645;28;20117;-81
2023/04/05 09:13:45;;;;;;;19.80;11.90;;;18.00;48.00;;;;;;4972625;28;20027;-81
2023/04/05 09:16:11;;;;;;;19.67;11.18;;;17.90;50.40;;;;;;4972002;28;20050;-81
2023/04/05 09:18:37;;;;;;;18.77;11.25;;;17.80;48.50;;;;;;4972590;28;20534;-80
2023/04/05 09:21:04;;;;;;;17.40;11.88;;;17.40;49.60;;;;;;4972642;28;20066;-81
2023/04/05 09:23:30;;;;;;;18.75;12.35;;;17.20;51.20;;;;;;4989644;28;20550;-81
2023/04/05 09:25:56;;;;;;;19.15;12.40;;;16.70;54.40;;;;;;4990593;28;20053;-81
2023/04/05 09:28:21;;;;;;;20.27;12.55;;;17.00;56.90;;;;;;4977504;28;20498;-81
2023/04/05 09:30:47;;;;;;;20.88;12.60;;;16.80;56.50;;;;;;4963851;28;20030;-82
2023/04/05 09:33:19;;;;;;;22.05;12.70;;;17.20;55.00;;;;;;4982010;28;20043;-81
2023/04/05 09:35:50;;;;;;;18.92;12.43;;;17.40;53.10;;;;;;4962505;28;20029;-81
2023/04/05 09:38:15;;;;;;;21.75;12.73;;;17.70;51.00;;;;;;4991447;28;20026;-81
2023/04/05 09:40:50;;;;;;;21.08;13.23;;;17.90;49.40;;;;;;4987689;28;20101;-82
2023/04/05 09:43:35;;;;;;;17.20;11.98;;;17.80;50.80;;;;;;4973673;28;20034;-81
2023/04/05 09:46:00;;;;;;;17.08;11.85;;;17.90;48.30;;;;;;4988865;28;20108;-81
2023/04/05 09:48:46;;;;;;;16.95;11.35;;;17.90;50.20;;;;;;4983813;28;20038;-80
2023/04/05 09:51:13;;;;;;;19.55;11.93;;;17.90;50.20;;;;;;4971177;28;20031;-81
2023/04/05 09:53:57;;;;;;;17.67;11.77;;;17.80;50.20;;;;;;4982238;28;20133;-81
2023/04/05 09:56:23;;;;;;;19.52;13.05;;;17.80;50.00;;;;;;4983001;28;20133;-79
2023/04/05 09:58:50;;;;;;;17.30;12.32;;;17.60;50.10;;;;;;4985788;28;20539;-81
2023/04/05 10:01:16;;;;;;;15.77;10.65;;;17.50;52.20;;;;;;4981404;28;20047;-80
2023/04/05 10:03:48;;;;;;;18.17;10.77;;;17.30;49.80;;;;;;4966865;28;20090;-80
2023/04/05 10:06:17;;;;;;;19.75;12.60;;;17.20;49.70;;;;;;4986766;28;20121;-80
2023/04/05 10:08:46;;;;;;;20.13;12.40;;;17.30;55.00;;;;;;4987755;28;20086;-80
2023/04/05 10:11:12;;;;;;;20.08;11.02;;;17.50;55.20;;;;;;4972364;28;20062;-80
2023/04/05 10:13:39;;;;;;;17.60;9.55;;;17.70;54.60;;;;;;4978478;28;20113;-80
2023/04/05 10:16:12;;;;;;;16.80;9.85;;;18.90;49.50;;;;;;4982326;28;20406;-80
2023/04/05 10:18:50;;;;;;;14.55;7.95;;;20.00;47.80;;;;;;4985774;28;20510;-80
2023/04/05 10:21:21;;;;;;;12.30;6.65;;;22.30;41.40;;;;;;4983236;28;20051;-81
2023/04/05 10:23:53;;;;;;;13.35;7.20;;;24.30;36.90;;;;;;4987215;28;20109;-81
2023/04/05 10:26:30;;;;;;;9.88;6.68;;;25.60;35.50;;;;;;4986475;28;20126;-81
2023/04/05 10:29:08;;;;;;;15.30;7.45;;;26.20;32.50;;;;;;4978144;28;20040;-81
2023/04/05 10:31:50;;;;;;;15.10;7.50;;;26.10;31.00;;;;;;4982218;28;20053;-82
2023/04/05 10:34:31;;;;;;;10.63;6.45;;;25.70;32.00;;;;;;4980336;28;20032;-82
2023/04/05 10:37:00;;;;;;;13.13;7.07;;;25.40;34.90;;;;;;4981308;28;20038;-81
2023/04/05 10:39:39;;;;;;;11.50;6.95;;;25.30;31.00;;;;;;4978894;28;20022;-80
2023/04/05 10:42:19;;;;;;;11.63;6.18;;;25.40;31.30;;;;;;4983677;28;20074;-81
2023/04/05 10:44:51;;;;;;;9.35;6.47;;;25.10;31.60;;;;;;4634562;28;10001355;-80
2023/04/05 10:47:18;;;;;;;13.30;6.47;;;23.80;36.20;;;;;;4973433;28;20097;-80
2023/04/05 10:49:47;;;;;;;12.65;6.75;;;23.70;37.80;;;;;;4984445;28;22133;-79
2023/04/05 10:52:15;;;;;;;12.80;6.43;;;23.50;35.40;;;;;;4962054;28;20117;-81
2023/04/05 10:54:41;;;;;;;9.10;6.22;;;23.30;36.90;;;;;;4984728;28;20034;-80
2023/04/05 10:57:08;;;;;;;11.45;6.80;;;22.90;37.20;;;;;;4985358;28;20034;-80
2023/04/05 10:59:35;;;;;;;9.52;6.55;;;21.90;36.70;;;;;;4993526;28;20041;-81
2023/04/05 11:02:02;;;;;;;9.88;6.55;;;21.40;39.50;;;;;;4985111;28;20068;-79
2023/04/05 11:04:28;;;;;;;12.80;6.57;;;20.20;41.20;;;;;;4981483;28;20027;-80
2023/04/05 11:07:13;;;;;;;10.30;6.43;;;19.70;40.80;;;;;;4984659;28;20041;-79
2023/04/05 11:10:00;;;;;;;11.40;6.22;;;19.80;40.80;;;;;;4976513;28;20057;-80
2023/04/05 11:12:57;;;;;;;11.05;5.90;;;20.10;43.50;;;;;;4978805;28;20402;-80
2023/04/05 11:15:29;;;;;;;12.43;6.70;;;20.70;42.80;;;;;;4986978;28;20084;-80
2023/04/05 11:18:02;;;;;;;11.85;6.43;;;21.20;39.00;;;;;;4987952;28;20097;-79
2023/04/05 11:20:50;;;;;;;11.25;6.00;;;21.20;38.70;;;;;;4984473;28;20045;-80
2023/04/05 11:23:20;;;;;;;10.43;5.95;;;21.70;39.70;;;;;;4986688;28;20038;-81
2023/04/05 11:26:06;;;;;;;11.82;6.43;;;21.30;38.40;;;;;;4983391;28;20042;-80
2023/04/05 11:28:38;;;;;;;10.30;6.57;;;21.40;35.90;;;;;;4981435;28;20116;-80
2023/04/05 11:31:17;;;;;;;10.00;6.07;;;21.50;38.30;;;;;;4987287;28;20077;-81
2023/04/05 11:33:46;;;;;;;12.07;5.97;;;21.40;39.30;;;;;;4974886;28;20113;-80
2023/04/05 11:36:14;;;;;;;12.43;6.38;;;21.20;39.00;;;;;;4984404;28;20057;-80
2023/04/05 11:38:42;;;;;;;11.50;6.30;;;21.00;39.00;;;;;;4987567;28;20053;-82
2023/04/05 11:41:16;;;;;;;9.95;6.47;;;20.50;42.50;;;;;;4988036;28;20494;-82
2023/04/05 11:43:42;;;;;;;13.15;6.82;;;19.70;43.10;;;;;;4986864;28;20034;-79
2023/04/05 11:46:08;;;;;;;11.52;6.25;;;19.10;44.80;;;;;;4988598;28;20057;-80
2023/04/05 11:48:35;;;;;;;11.65;6.13;;;18.80;44.00;;;;;;4987833;28;20594;-80
2023/04/05 11:51:09;;;;;;;13.35;6.80;;;18.40;44.80;;;;;;5092951;27;20421;-75
2023/04/05 11:53:35;;;;;;;12.43;6.88;;;18.40;44.20;;;;;;5092811;28;20035;-74
2023/04/05 11:56:12;;;;;;;13.43;6.38;;;18.00;45.70;;;;;;5105851;27;20032;-75
2023/04/05 11:58:38;;;;;;;8.93;6.22;;;18.30;46.80;;;;;;5109521;28;20119;-76
2023/04/05 12:01:06;;;;;;;8.93;5.75;;;18.20;44.30;;;;;;5094762;28;20165;-75
2023/04/05 12:03:33;;;;;;;13.27;6.30;;;18.10;45.80;;;;;;5095632;28;20083;-75
2023/04/05 12:06:00;;;;;;;11.43;6.18;;;17.70;46.60;;;;;;5099184;28;20031;-75
2023/04/05 12:08:48;;;;;;;12.50;6.07;;;17.90;47.80;;;;;;5116067;28;20129;-75
2023/04/05 12:11:14;;;;;;;10.60;6.25;;;18.00;49.00;;;;;;5114509;28;20038;-75
2023/04/05 12:13:40;;;;;;;9.38;5.40;;;18.00;46.90;;;;;;5093923;28;20028;-73
2023/04/05 12:16:07;;;;;;;9.52;5.70;;;17.80;48.00;;;;;;5094400;28;20103;-75
2023/04/05 12:18:34;;;;;;;8.90;5.03;;;18.30;46.90;;;;;;5107549;27;20027;-76
2023/04/05 12:21:05;;;;;;;9.80;5.53;;;18.70;45.20;;;;;;5089359;28;20387;-76
2023/04/05 12:23:31;;;;;;;9.32;6.13;;;18.80;46.20;;;;;;5076150;28;20075;-75
2023/04/05 12:25:58;;;;;;;9.57;5.80;;;19.10;46.50;;;;;;5087145;28;20384;-75
2023/04/05 12:28:24;;;;;;;9.38;5.07;;;19.60;46.00;;;;;;5112117;28;20035;-75
2023/04/05 12:30:56;;;;;;;9.93;5.28;;;19.50;41.90;;;;;;5114398;28;20144;-75
2023/04/05 12:33:29;;;;;;;11.48;5.70;;;19.20;42.50;;;;;;5100124;28;20785;-75
2023/04/05 12:35:55;;;;;;;13.05;6.25;;;19.00;41.90;;;;;;5090740;28;20431;-75
2023/04/05 12:38:24;;;;;;;12.55;5.70;;;18.40;45.40;;;;;;5115046;28;20027;-75
2023/04/05 12:40:51;;;;;;;8.27;5.25;;;18.90;44.30;;;;;;5082644;28;20119;-76
2023/04/05 12:43:18;;;;;;;12.10;5.75;;;19.40;44.00;;;;;;5076605;28;20120;-76
2023/04/05 12:45:45;;;;;;;7.68;4.97;;;19.10;41.30;;;;;;5074018;28;20775;-76
2023/04/05 12:48:12;;;;;;;12.80;5.15;;;18.80;41.90;;;;;;5079636;28;20028;-76